sensor_id;sensor_type;location;lat;lon;timestamp;P1;durP1;ratioP1;P2;durP2;ratioP2
80163;SDS011;69489;55.130;61.268;2023-04-21T00:00:49;3.22;;;1.98;;
80163;SDS011;69489;55.130;61.268;2023-04-21T00:03:16;2.38;;;1.73;;
80163;SDS011;69489;55.130;61.268;2023-04-21T00:05:45;3.70;;;2.28;;
80163;SDS011;69489;55.130;61.268;2023-04-21T00:08:12;2.90;;;1.63;;
80163;SDS011;69489;55.130;61.268;2023-04-21T00:10:38;2.80;;;1.98;;
80163;SDS011;69489;55.130;61.268;2023-04-21T00:13:04;4.43;;;2.20;;
80163;SDS011;69489;55.130;61.268;2023-04-21T00:15:30;3.58;;;2.20;;
80163;SDS011;69489;55.130;61.268;2023-04-21T00:17:56;3.20;;;2.00;;
80163;SDS011;69489;55.130;61.268;2023-04-21T00:20:23;3.63;;;2.40;;
80163;SDS011;69489;55.130;61.268;2023-04-21T00:22:53;3.97;;;2.28;;
80163;SDS011;69489;55.130;61.268;2023-04-21T00:25:19;4.25;;;2.45;;
80163;SDS011;69489;55.130;61.268;2023-04-21T00:27:46;3.88;;;2.70;;
80163;SDS011;69489;55.130;61.268;2023-04-21T00:30:12;3.15;;;2.03;;
80163;SDS011;69489;55.130;61.268;2023-04-21T00:32:38;2.80;;;1.77;;
80163;SDS011;69489;55.130;61.268;2023-04-21T00:35:04;3.05;;;2.20;;
80163;SDS011;69489;55.130;61.268;2023-04-21T00:37:30;2.75;;;2.20;;
80163;SDS011;69489;55.130;61.268;2023-04-21T00:39:56;3.67;;;2.15;;
80163;SDS011;69489;55.130;61.268;2023-04-21T00:42:23;4.47;;;2.03;;
80163;SDS011;69489;55.130;61.268;2023-04-21T00:47:16;3.63;;;2.00;;
80163;SDS011;69489;55.130;61.268;2023-04-21T00:49:42;2.65;;;1.88;;
80163;SDS011;69489;55.130;61.268;2023-04-21T00:52:08;3.72;;;2.33;;
80163;SDS011;69489;55.130;61.268;2023-04-21T00:54:35;4.05;;;2.53;;
80163;SDS011;69489;55.130;61.268;2023-04-21T00:57:01;2.45;;;1.92;;
80163;SDS011;69489;55.130;61.268;2023-04-21T00:59:28;3.50;;;2.42;;
80163;SDS011;69489;55.130;61.268;2023-04-21T01:01:54;3.63;;;2.22;;
80163;SDS011;69489;55.130;61.268;2023-04-21T01:04:20;4.57;;;2.35;;
80163;SDS011;69489;55.130;61.268;2023-04-21T01:06:46;4.35;;;2.22;;
80163;SDS011;69489;55.130;61.268;2023-04-21T01:09:12;3.75;;;2.30;;
80163;SDS011;69489;55.130;61.268;2023-04-21T01:11:38;3.25;;;2.00;;
80163;SDS011;69489;55.130;61.268;2023-04-21T01:14:05;4.13;;;2.45;;
80163;SDS011;69489;55.130;61.268;2023-04-21T01:16:31;3.33;;;2.38;;
80163;SDS011;69489;55.130;61.268;2023-04-21T01:18:58;3.38;;;2.40;;
80163;SDS011;69489;55.130;61.268;2023-04-21T01:21:25;2.95;;;2.10;;
80163;SDS011;69489;55.130;61.268;2023-04-21T01:23:53;2.30;;;2.00;;
80163;SDS011;69489;55.130;61.268;2023-04-21T01:26:19;2.90;;;2.05;;
80163;SDS011;69489;55.130;61.268;2023-04-21T01:28:47;3.05;;;2.03;;
80163;SDS011;69489;55.130;61.268;2023-04-21T01:31:16;5.72;;;3.17;;
80163;SDS011;69489;55.130;61.268;2023-04-21T01:33:43;4.05;;;2.22;;
80163;SDS011;69489;55.130;61.268;2023-04-21T01:36:09;2.45;;;1.48;;
80163;SDS011;69489;55.130;61.268;2023-04-21T01:38:38;3.42;;;2.47;;
80163;SDS011;69489;55.130;61.268;2023-04-21T01:41:05;2.78;;;2.30;;
80163;SDS011;69489;55.130;61.268;2023-04-21T01:43:31;4.28;;;2.53;;
80163;SDS011;69489;55.130;61.268;2023-04-21T01:45:57;3.22;;;2.28;;
80163;SDS011;69489;55.130;61.268;2023-04-21T01:48:23;3.13;;;2.25;;
80163;SDS011;69489;55.130;61.268;2023-04-21T01:50:48;3.30;;;2.40;;
80163;SDS011;69489;55.130;61.268;2023-04-21T01:53:14;2.97;;;2.15;;
80163;SDS011;69489;55.130;61.268;2023-04-21T01:55:40;2.63;;;1.88;;
80163;SDS011;69489;55.130;61.268;2023-04-21T01:58:06;4.38;;;2.58;;
80163;SDS011;69489;55.130;61.268;2023-04-21T02:00:31;4.18;;;2.80;;
80163;SDS011;69489;55.130;61.268;2023-04-21T02:02:57;3.55;;;2.40;;
80163;SDS011;69489;55.130;61.268;2023-04-21T02:05:23;2.97;;;2.40;;
80163;SDS011;69489;55.130;61.268;2023-04-21T02:07:49;3.10;;;1.98;;
80163;SDS011;69489;55.130;61.268;2023-04-21T02:10:15;3.10;;;2.40;;
80163;SDS011;69489;55.130;61.268;2023-04-21T02:12:41;4.22;;;2.45;;
80163;SDS011;69489;55.130;61.268;2023-04-21T02:15:07;3.28;;;2.60;;
80163;SDS011;69489;55.130;61.268;2023-04-21T02:17:33;3.40;;;2.80;;
80163;SDS011;69489;55.130;61.268;2023-04-21T02:19:58;3.30;;;2.58;;
80163;SDS011;69489;55.130;61.268;2023-04-21T02:22:24;3.78;;;2.78;;
80163;SDS011;69489;55.130;61.268;2023-04-21T02:24:50;4.55;;;2.95;;
80163;SDS011;69489;55.130;61.268;2023-04-21T02:27:16;4.40;;;3.00;;
80163;SDS011;69489;55.130;61.268;2023-04-21T02:29:42;3.63;;;2.63;;
80163;SDS011;69489;55.130;61.268;2023-04-21T02:32:08;3.60;;;2.92;;
80163;SDS011;69489;55.130;61.268;2023-04-21T02:34:33;5.80;;;3.25;;
80163;SDS011;69489;55.130;61.268;2023-04-21T02:36:59;5.45;;;3.58;;
80163;SDS011;69489;55.130;61.268;2023-04-21T02:39:25;3.90;;;3.08;;
80163;SDS011;69489;55.130;61.268;2023-04-21T02:41:51;4.35;;;3.00;;
80163;SDS011;69489;55.130;61.268;2023-04-21T02:44:17;5.07;;;3.28;;
80163;SDS011;69489;55.130;61.268;2023-04-21T02:46:42;4.30;;;3.33;;
80163;SDS011;69489;55.130;61.268;2023-04-21T02:49:08;3.33;;;2.85;;
80163;SDS011;69489;55.130;61.268;2023-04-21T02:54:00;5.05;;;3.00;;
80163;SDS011;69489;55.130;61.268;2023-04-21T02:56:27;5.28;;;2.85;;
80163;SDS011;69489;55.130;61.268;2023-04-21T02:58:53;3.42;;;2.60;;
80163;SDS011;69489;55.130;61.268;2023-04-21T03:01:18;3.30;;;2.53;;
80163;SDS011;69489;55.130;61.268;2023-04-21T03:03:44;2.83;;;2.30;;
80163;SDS011;69489;55.130;61.268;2023-04-21T03:06:10;3.90;;;2.38;;
80163;SDS011;69489;55.130;61.268;2023-04-21T03:08:36;4.13;;;2.30;;
80163;SDS011;69489;55.130;61.268;2023-04-21T03:11:02;3.35;;;2.90;;
80163;SDS011;69489;55.130;61.268;2023-04-21T03:13:28;3.55;;;2.70;;
80163;SDS011;69489;55.130;61.268;2023-04-21T03:15:53;4.28;;;2.60;;
80163;SDS011;69489;55.130;61.268;2023-04-21T03:18:20;3.45;;;2.67;;
80163;SDS011;69489;55.130;61.268;2023-04-21T03:20:45;3.63;;;2.70;;
80163;SDS011;69489;55.130;61.268;2023-04-21T03:23:11;3.50;;;2.45;;
80163;SDS011;69489;55.130;61.268;2023-04-21T03:25:37;2.33;;;1.98;;
80163;SDS011;69489;55.130;61.268;2023-04-21T03:28:03;3.35;;;2.53;;
80163;SDS011;69489;55.130;61.268;2023-04-21T03:32:55;4.85;;;2.58;;
80163;SDS011;69489;55.130;61.268;2023-04-21T03:35:20;4.22;;;2.50;;
80163;SDS011;69489;55.130;61.268;2023-04-21T03:40:14;3.20;;;2.50;;
80163;SDS011;69489;55.130;61.268;2023-04-21T03:42:40;3.58;;;2.50;;
80163;SDS011;69489;55.130;61.268;2023-04-21T03:45:08;3.97;;;2.88;;
80163;SDS011;69489;55.130;61.268;2023-04-21T03:47:35;5.10;;;3.10;;
80163;SDS011;69489;55.130;61.268;2023-04-21T03:50:04;2.90;;;2.55;;
80163;SDS011;69489;55.130;61.268;2023-04-21T03:52:31;4.43;;;2.83;;
80163;SDS011;69489;55.130;61.268;2023-04-21T03:55:00;4.03;;;2.70;;
80163;SDS011;69489;55.130;61.268;2023-04-21T03:57:26;4.50;;;2.42;;
80163;SDS011;69489;55.130;61.268;2023-04-21T03:59:51;3.25;;;2.60;;
80163;SDS011;69489;55.130;61.268;2023-04-21T04:02:17;5.10;;;2.92;;
80163;SDS011;69489;55.130;61.268;2023-04-21T04:04:43;3.78;;;3.40;;
80163;SDS011;69489;55.130;61.268;2023-04-21T04:07:10;5.75;;;2.80;;
80163;SDS011;69489;55.130;61.268;2023-04-21T04:09:35;4.07;;;2.80;;
80163;SDS011;69489;55.130;61.268;2023-04-21T04:12:01;4.65;;;3.45;;
80163;SDS011;69489;55.130;61.268;2023-04-21T04:14:27;3.53;;;3.22;;
80163;SDS011;69489;55.130;61.268;2023-04-21T04:16:54;7.47;;;4.03;;
80163;SDS011;69489;55.130;61.268;2023-04-21T04:19:20;5.47;;;3.72;;
80163;SDS011;69489;55.130;61.268;2023-04-21T04:21:45;5.25;;;3.15;;
80163;SDS011;69489;55.130;61.268;2023-04-21T04:24:11;3.67;;;3.17;;
80163;SDS011;69489;55.130;61.268;2023-04-21T04:26:38;6.15;;;3.53;;
80163;SDS011;69489;55.130;61.268;2023-04-21T04:29:04;3.60;;;2.80;;
80163;SDS011;69489;55.130;61.268;2023-04-21T04:31:34;4.63;;;3.30;;
80163;SDS011;69489;55.130;61.268;2023-04-21T04:34:00;3.47;;;3.17;;
80163;SDS011;69489;55.130;61.268;2023-04-21T04:36:26;4.03;;;3.03;;
80163;SDS011;69489;55.130;61.268;2023-04-21T04:38:52;3.90;;;2.92;;
80163;SDS011;69489;55.130;61.268;2023-04-21T04:41:18;7.20;;;4.60;;
80163;SDS011;69489;55.130;61.268;2023-04-21T04:43:45;4.70;;;3.50;;
80163;SDS011;69489;55.130;61.268;2023-04-21T04:46:11;5.30;;;2.97;;
80163;SDS011;69489;55.130;61.268;2023-04-21T04:48:37;4.80;;;2.65;;
80163;SDS011;69489;55.130;61.268;2023-04-21T04:51:03;4.85;;;2.40;;
80163;SDS011;69489;55.130;61.268;2023-04-21T04:53:30;2.95;;;2.65;;
80163;SDS011;69489;55.130;61.268;2023-04-21T04:55:59;3.40;;;2.60;;
80163;SDS011;69489;55.130;61.268;2023-04-21T04:58:25;5.03;;;2.55;;
80163;SDS011;69489;55.130;61.268;2023-04-21T05:00:51;3.10;;;2.20;;
80163;SDS011;69489;55.130;61.268;2023-04-21T05:03:16;3.15;;;2.55;;
80163;SDS011;69489;55.130;61.268;2023-04-21T05:05:42;3.28;;;2.33;;
80163;SDS011;69489;55.130;61.268;2023-04-21T05:08:10;2.53;;;2.33;;
80163;SDS011;69489;55.130;61.268;2023-04-21T05:10:36;2.63;;;2.08;;
80163;SDS011;69489;55.130;61.268;2023-04-21T05:13:01;2.95;;;2.35;;
80163;SDS011;69489;55.130;61.268;2023-04-21T05:15:27;3.08;;;2.30;;
80163;SDS011;69489;55.130;61.268;2023-04-21T05:17:53;2.65;;;2.08;;
80163;SDS011;69489;55.130;61.268;2023-04-21T05:20:19;2.83;;;2.30;;
80163;SDS011;69489;55.130;61.268;2023-04-21T05:22:45;3.28;;;2.50;;
80163;SDS011;69489;55.130;61.268;2023-04-21T05:25:11;5.20;;;2.45;;
80163;SDS011;69489;55.130;61.268;2023-04-21T05:27:40;2.72;;;2.38;;
80163;SDS011;69489;55.130;61.268;2023-04-21T05:30:06;2.40;;;2.20;;
80163;SDS011;69489;55.130;61.268;2023-04-21T05:32:32;2.85;;;2.28;;
80163;SDS011;69489;55.130;61.268;2023-04-21T05:34:58;3.10;;;2.22;;
80163;SDS011;69489;55.130;61.268;2023-04-21T05:37:25;2.40;;;2.10;;
80163;SDS011;69489;55.130;61.268;2023-04-21T05:39:51;2.85;;;2.65;;
80163;SDS011;69489;55.130;61.268;2023-04-21T05:42:16;2.45;;;2.05;;
80163;SDS011;69489;55.130;61.268;2023-04-21T05:44:42;3.03;;;2.05;;
80163;SDS011;69489;55.130;61.268;2023-04-21T05:47:08;3.92;;;2.08;;
80163;SDS011;69489;55.130;61.268;2023-04-21T05:49:34;2.42;;;1.95;;
80163;SDS011;69489;55.130;61.268;2023-04-21T05:52:00;3.28;;;2.97;;
80163;SDS011;69489;55.130;61.268;2023-04-21T05:54:25;3.05;;;2.45;;
80163;SDS011;69489;55.130;61.268;2023-04-21T05:56:51;4.65;;;2.33;;
80163;SDS011;69489;55.130;61.268;2023-04-21T05:59:17;5.07;;;2.50;;
80163;SDS011;69489;55.130;61.268;2023-04-21T06:01:43;2.03;;;1.70;;
80163;SDS011;69489;55.130;61.268;2023-04-21T06:04:09;3.47;;;2.00;;
80163;SDS011;69489;55.130;61.268;2023-04-21T06:06:34;2.35;;;2.13;;
80163;SDS011;69489;55.130;61.268;2023-04-21T06:09:01;4.22;;;2.38;;
80163;SDS011;69489;55.130;61.268;2023-04-21T06:11:27;3.22;;;2.30;;
80163;SDS011;69489;55.130;61.268;2023-04-21T06:13:52;2.20;;;1.92;;
80163;SDS011;69489;55.130;61.268;2023-04-21T06:16:22;3.45;;;2.42;;
80163;SDS011;69489;55.130;61.268;2023-04-21T06:18:48;3.85;;;2.42;;
80163;SDS011;69489;55.130;61.268;2023-04-21T06:21:14;2.38;;;2.00;;
80163;SDS011;69489;55.130;61.268;2023-04-21T06:26:06;2.35;;;1.92;;
80163;SDS011;69489;55.130;61.268;2023-04-21T06:30:58;3.22;;;1.60;;
80163;SDS011;69489;55.130;61.268;2023-04-21T06:33:25;2.33;;;2.13;;
80163;SDS011;69489;55.130;61.268;2023-04-21T06:38:18;2.00;;;1.52;;
80163;SDS011;69489;55.130;61.268;2023-04-21T06:40:44;2.40;;;1.92;;
80163;SDS011;69489;55.130;61.268;2023-04-21T06:43:10;3.90;;;2.03;;
80163;SDS011;69489;55.130;61.268;2023-04-21T06:45:35;2.55;;;2.10;;
80163;SDS011;69489;55.130;61.268;2023-04-21T06:48:01;3.05;;;2.20;;
80163;SDS011;69489;55.130;61.268;2023-04-21T06:50:27;4.68;;;1.63;;
80163;SDS011;69489;55.130;61.268;2023-04-21T06:52:53;3.08;;;1.73;;
80163;SDS011;69489;55.130;61.268;2023-04-21T06:55:19;4.85;;;2.08;;
80163;SDS011;69489;55.130;61.268;2023-04-21T06:57:45;2.70;;;1.90;;
80163;SDS011;69489;55.130;61.268;2023-04-21T07:00:11;3.72;;;2.22;;
80163;SDS011;69489;55.130;61.268;2023-04-21T07:02:38;3.45;;;2.17;;
80163;SDS011;69489;55.130;61.268;2023-04-21T07:05:03;3.15;;;2.03;;
80163;SDS011;69489;55.130;61.268;2023-04-21T07:07:30;2.35;;;1.90;;
80163;SDS011;69489;55.130;61.268;2023-04-21T07:09:55;3.35;;;1.73;;
80163;SDS011;69489;55.130;61.268;2023-04-21T07:12:21;2.83;;;1.95;;
80163;SDS011;69489;55.130;61.268;2023-04-21T07:14:47;4.22;;;2.63;;
80163;SDS011;69489;55.130;61.268;2023-04-21T07:17:13;3.60;;;2.30;;
80163;SDS011;69489;55.130;61.268;2023-04-21T07:19:38;6.72;;;2.53;;
80163;SDS011;69489;55.130;61.268;2023-04-21T07:22:04;3.28;;;2.15;;
80163;SDS011;69489;55.130;61.268;2023-04-21T07:24:30;3.15;;;2.47;;
80163;SDS011;69489;55.130;61.268;2023-04-21T07:26:58;3.47;;;2.20;;
80163;SDS011;69489;55.130;61.268;2023-04-21T07:29:24;4.43;;;2.58;;
80163;SDS011;69489;55.130;61.268;2023-04-21T07:31:50;4.15;;;2.10;;
80163;SDS011;69489;55.130;61.268;2023-04-21T07:34:16;3.47;;;2.33;;
80163;SDS011;69489;55.130;61.268;2023-04-21T07:36:41;2.85;;;2.10;;
80163;SDS011;69489;55.130;61.268;2023-04-21T07:39:07;4.22;;;2.25;;
80163;SDS011;69489;55.130;61.268;2023-04-21T07:41:33;2.67;;;2.10;;
80163;SDS011;69489;55.130;61.268;2023-04-21T07:43:59;3.45;;;2.17;;
80163;SDS011;69489;55.130;61.268;2023-04-21T07:46:24;5.25;;;2.25;;
80163;SDS011;69489;55.130;61.268;2023-04-21T07:48:57;2.67;;;1.67;;
80163;SDS011;69489;55.130;61.268;2023-04-21T07:51:24;2.65;;;2.03;;
80163;SDS011;69489;55.130;61.268;2023-04-21T07:53:50;3.38;;;2.08;;
80163;SDS011;69489;55.130;61.268;2023-04-21T07:56:16;3.20;;;2.20;;
80163;SDS011;69489;55.130;61.268;2023-04-21T07:58:42;4.13;;;2.03;;
80163;SDS011;69489;55.130;61.268;2023-04-21T08:01:07;2.08;;;1.80;;
80163;SDS011;69489;55.130;61.268;2023-04-21T08:03:33;3.70;;;2.00;;
80163;SDS011;69489;55.130;61.268;2023-04-21T08:05:59;2.92;;;1.85;;
80163;SDS011;69489;55.130;61.268;2023-04-21T08:08:25;2.88;;;2.00;;
80163;SDS011;69489;55.130;61.268;2023-04-21T08:10:52;3.58;;;2.50;;
80163;SDS011;69489;55.130;61.268;2023-04-21T08:13:18;3.30;;;1.80;;
80163;SDS011;69489;55.130;61.268;2023-04-21T08:15:45;2.28;;;1.92;;
80163;SDS011;69489;55.130;61.268;2023-04-21T08:18:10;1.95;;;1.65;;
80163;SDS011;69489;55.130;61.268;2023-04-21T08:20:36;2.60;;;1.60;;
80163;SDS011;69489;55.130;61.268;2023-04-21T08:23:02;4.97;;;1.88;;
80163;SDS011;69489;55.130;61.268;2023-04-21T08:25:28;4.15;;;2.22;;
80163;SDS011;69489;55.130;61.268;2023-04-21T08:27:54;2.42;;;1.80;;
80163;SDS011;69489;55.130;61.268;2023-04-21T08:30:19;3.25;;;1.92;;
80163;SDS011;69489;55.130;61.268;2023-04-21T08:32:45;2.83;;;1.42;;
80163;SDS011;69489;55.130;61.268;2023-04-21T08:35:11;1.70;;;1.40;;
80163;SDS011;69489;55.130;61.268;2023-04-21T08:37:37;3.55;;;1.67;;
80163;SDS011;69489;55.130;61.268;2023-04-21T08:40:03;2.40;;;1.95;;
80163;SDS011;69489;55.130;61.268;2023-04-21T08:42:30;2.47;;;1.88;;
80163;SDS011;69489;55.130;61.268;2023-04-21T08:44:57;3.65;;;2.00;;
80163;SDS011;69489;55.130;61.268;2023-04-21T08:47:23;3.38;;;2.30;;
80163;SDS011;69489;55.130;61.268;2023-04-21T08:49:50;2.50;;;1.48;;
80163;SDS011;69489;55.130;61.268;2023-04-21T08:52:16;2.33;;;1.90;;
80163;SDS011;69489;55.130;61.268;2023-04-21T08:54:42;1.92;;;1.73;;
80163;SDS011;69489;55.130;61.268;2023-04-21T08:57:08;3.00;;;2.03;;
80163;SDS011;69489;55.130;61.268;2023-04-21T08:59:34;3.15;;;1.70;;
80163;SDS011;69489;55.130;61.268;2023-04-21T09:02:13;2.15;;;1.80;;
80163;SDS011;69489;55.130;61.268;2023-04-21T09:04:46;2.70;;;1.83;;
80163;SDS011;69489;55.130;61.268;2023-04-21T09:10:00;2.40;;;1.67;;
80163;SDS011;69489;55.130;61.268;2023-04-21T09:12:28;2.67;;;1.92;;
80163;SDS011;69489;55.130;61.268;2023-04-21T09:14:55;3.60;;;2.05;;
80163;SDS011;69489;55.130;61.268;2023-04-21T09:17:30;4.03;;;2.20;;
80163;SDS011;69489;55.130;61.268;2023-04-21T09:20:17;3.58;;;1.95;;
80163;SDS011;69489;55.130;61.268;2023-04-21T09:22:44;2.67;;;1.98;;
80163;SDS011;69489;55.130;61.268;2023-04-21T09:25:14;5.03;;;2.65;;
80163;SDS011;69489;55.130;61.268;2023-04-21T09:27:41;2.65;;;2.05;;
80163;SDS011;69489;55.130;61.268;2023-04-21T09:30:07;2.92;;;2.10;;
80163;SDS011;69489;55.130;61.268;2023-04-21T09:32:37;2.78;;;1.70;;
80163;SDS011;69489;55.130;61.268;2023-04-21T09:35:04;3.17;;;2.10;;
80163;SDS011;69489;55.130;61.268;2023-04-21T09:37:33;4.50;;;1.70;;
80163;SDS011;69489;55.130;61.268;2023-04-21T09:42:28;3.08;;;2.05;;
80163;SDS011;69489;55.130;61.268;2023-04-21T09:44:55;3.58;;;1.98;;
80163;SDS011;69489;55.130;61.268;2023-04-21T09:47:22;3.35;;;1.83;;
80163;SDS011;69489;55.130;61.268;2023-04-21T09:49:51;2.63;;;2.10;;
80163;SDS011;69489;55.130;61.268;2023-04-21T09:52:36;6.28;;;3.58;;
80163;SDS011;69489;55.130;61.268;2023-04-21T09:55:03;4.63;;;2.00;;
80163;SDS011;69489;55.130;61.268;2023-04-21T09:57:37;3.63;;;2.45;;
80163;SDS011;69489;55.130;61.268;2023-04-21T10:00:06;2.50;;;2.10;;
80163;SDS011;69489;55.130;61.268;2023-04-21T10:02:34;3.83;;;2.65;;
80163;SDS011;69489;55.130;61.268;2023-04-21T10:05:06;6.80;;;2.58;;
80163;SDS011;69489;55.130;61.268;2023-04-21T10:07:34;4.95;;;3.15;;
80163;SDS011;69489;55.130;61.268;2023-04-21T10:09:59;5.18;;;2.72;;
80163;SDS011;69489;55.130;61.268;2023-04-21T10:12:28;5.15;;;2.67;;
80163;SDS011;69489;55.130;61.268;2023-04-21T10:14:54;3.60;;;3.03;;
80163;SDS011;69489;55.130;61.268;2023-04-21T10:22:33;3.28;;;2.47;;
80163;SDS011;69489;55.130;61.268;2023-04-21T10:25:02;3.58;;;2.00;;
80163;SDS011;69489;55.130;61.268;2023-04-21T10:27:38;3.47;;;2.13;;
80163;SDS011;69489;55.130;61.268;2023-04-21T10:30:18;4.10;;;2.30;;
80163;SDS011;69489;55.130;61.268;2023-04-21T10:32:45;3.58;;;2.20;;
80163;SDS011;69489;55.130;61.268;2023-04-21T10:37:47;3.55;;;1.27;;
80163;SDS011;69489;55.130;61.268;2023-04-21T10:42:55;3.58;;;2.17;;
80163;SDS011;69489;55.130;61.268;2023-04-21T10:45:23;2.90;;;2.28;;
80163;SDS011;69489;55.130;61.268;2023-04-21T10:47:50;4.38;;;2.05;;
80163;SDS011;69489;55.130;61.268;2023-04-21T10:52:52;3.10;;;2.60;;
80163;SDS011;69489;55.130;61.268;2023-04-21T10:55:19;3.08;;;2.40;;
80163;SDS011;69489;55.130;61.268;2023-04-21T10:57:46;2.88;;;2.00;;
80163;SDS011;69489;55.130;61.268;2023-04-21T11:00:13;2.50;;;1.70;;
80163;SDS011;69489;55.130;61.268;2023-04-21T11:02:41;2.95;;;1.63;;
80163;SDS011;69489;55.130;61.268;2023-04-21T11:05:08;2.88;;;2.25;;
80163;SDS011;69489;55.130;61.268;2023-04-21T11:07:35;4.47;;;2.40;;
80163;SDS011;69489;55.130;61.268;2023-04-21T11:10:07;3.10;;;2.05;;
80163;SDS011;69489;55.130;61.268;2023-04-21T11:12:38;3.58;;;1.92;;
80163;SDS011;69489;55.130;61.268;2023-04-21T11:15:09;3.08;;;1.83;;
80163;SDS011;69489;55.130;61.268;2023-04-21T11:17:37;2.92;;;2.40;;
80163;SDS011;69489;55.130;61.268;2023-04-21T11:20:07;2.53;;;1.55;;
80163;SDS011;69489;55.130;61.268;2023-04-21T11:22:35;2.88;;;1.73;;
80163;SDS011;69489;55.130;61.268;2023-04-21T11:25:01;2.15;;;1.60;;
80163;SDS011;69489;55.130;61.268;2023-04-21T11:27:29;4.03;;;1.75;;
80163;SDS011;69489;55.130;61.268;2023-04-21T11:29:55;2.53;;;1.63;;
80163;SDS011;69489;55.130;61.268;2023-04-21T11:32:21;2.80;;;1.75;;
80163;SDS011;69489;55.130;61.268;2023-04-21T11:37:15;3.10;;;1.88;;
80163;SDS011;69489;55.130;61.268;2023-04-21T11:39:48;5.28;;;2.00;;
80163;SDS011;69489;55.130;61.268;2023-04-21T11:42:19;4.80;;;2.15;;
80163;SDS011;69489;55.130;61.268;2023-04-21T11:44:46;3.47;;;2.10;;
80163;SDS011;69489;55.130;61.268;2023-04-21T11:52:19;3.35;;;2.10;;
80163;SDS011;69489;55.130;61.268;2023-04-21T11:57:25;7.15;;;2.10;;
80163;SDS011;69489;55.130;61.268;2023-04-21T11:59:52;6.07;;;2.50;;
80163;SDS011;69489;55.130;61.268;2023-04-21T12:02:31;4.90;;;2.00;;
80163;SDS011;69489;55.130;61.268;2023-04-21T12:07:24;7.10;;;1.98;;
80163;SDS011;69489;55.130;61.268;2023-04-21T12:09:50;2.90;;;2.30;;
80163;SDS011;69489;55.130;61.268;2023-04-21T12:12:17;4.75;;;2.15;;
80163;SDS011;69489;55.130;61.268;2023-04-21T12:14:43;4.00;;;2.13;;
80163;SDS011;69489;55.130;61.268;2023-04-21T12:19:39;5.95;;;2.03;;
80163;SDS011;69489;55.130;61.268;2023-04-21T12:22:06;5.18;;;2.08;;
80163;SDS011;69489;55.130;61.268;2023-04-21T12:24:34;2.35;;;1.52;;
80163;SDS011;69489;55.130;61.268;2023-04-21T12:27:00;3.72;;;2.20;;
80163;SDS011;69489;55.130;61.268;2023-04-21T12:29:27;2.78;;;2.10;;
80163;SDS011;69489;55.130;61.268;2023-04-21T12:31:53;5.43;;;1.80;;
80163;SDS011;69489;55.130;61.268;2023-04-21T12:34:18;2.85;;;2.22;;
80163;SDS011;69489;55.130;61.268;2023-04-21T12:36:44;5.35;;;1.90;;
80163;SDS011;69489;55.130;61.268;2023-04-21T12:39:10;4.32;;;2.33;;
80163;SDS011;69489;55.130;61.268;2023-04-21T12:41:37;2.97;;;1.83;;
80163;SDS011;69489;55.130;61.268;2023-04-21T12:46:30;3.70;;;1.70;;
80163;SDS011;69489;55.130;61.268;2023-04-21T12:48:56;4.82;;;1.75;;
80163;SDS011;69489;55.130;61.268;2023-04-21T12:51:22;3.78;;;2.03;;
80163;SDS011;69489;55.130;61.268;2023-04-21T12:53:48;6.40;;;2.80;;
80163;SDS011;69489;55.130;61.268;2023-04-21T12:56:14;9.95;;;2.90;;
80163;SDS011;69489;55.130;61.268;2023-04-21T12:58:39;5.80;;;2.17;;
80163;SDS011;69489;55.130;61.268;2023-04-21T13:03:32;5.10;;;2.70;;
80163;SDS011;69489;55.130;61.268;2023-04-21T13:05:58;3.38;;;2.05;;
80163;SDS011;69489;55.130;61.268;2023-04-21T13:08:24;8.40;;;3.58;;
80163;SDS011;69489;55.130;61.268;2023-04-21T13:10:50;7.10;;;3.28;;
80163;SDS011;69489;55.130;61.268;2023-04-21T13:13:16;8.50;;;4.00;;
80163;SDS011;69489;55.130;61.268;2023-04-21T13:15:41;10.13;;;3.65;;
80163;SDS011;69489;55.130;61.268;2023-04-21T13:18:07;7.55;;;3.80;;
80163;SDS011;69489;55.130;61.268;2023-04-21T13:20:33;6.43;;;3.33;;
80163;SDS011;69489;55.130;61.268;2023-04-21T13:22:59;13.68;;;5.10;;
80163;SDS011;69489;55.130;61.268;2023-04-21T13:25:25;9.15;;;4.40;;
80163;SDS011;69489;55.130;61.268;2023-04-21T13:27:51;9.95;;;4.13;;
80163;SDS011;69489;55.130;61.268;2023-04-21T13:30:17;9.27;;;4.10;;
80163;SDS011;69489;55.130;61.268;2023-04-21T13:32:42;6.75;;;3.15;;
80163;SDS011;69489;55.130;61.268;2023-04-21T13:35:08;6.47;;;3.10;;
80163;SDS011;69489;55.130;61.268;2023-04-21T13:37:38;5.65;;;2.67;;
80163;SDS011;69489;55.130;61.268;2023-04-21T13:40:05;5.45;;;3.38;;
80163;SDS011;69489;55.130;61.268;2023-04-21T13:42:34;6.78;;;3.17;;
80163;SDS011;69489;55.130;61.268;2023-04-21T13:45:02;4.68;;;2.40;;
80163;SDS011;69489;55.130;61.268;2023-04-21T13:47:33;5.65;;;2.60;;
80163;SDS011;69489;55.130;61.268;2023-04-21T13:49:59;4.28;;;2.47;;
80163;SDS011;69489;55.130;61.268;2023-04-21T13:52:25;5.15;;;2.55;;
80163;SDS011;69489;55.130;61.268;2023-04-21T13:54:51;6.13;;;2.60;;
80163;SDS011;69489;55.130;61.268;2023-04-21T13:57:18;5.22;;;2.38;;
80163;SDS011;69489;55.130;61.268;2023-04-21T13:59:45;4.28;;;2.30;;
80163;SDS011;69489;55.130;61.268;2023-04-21T14:02:11;5.07;;;2.00;;
80163;SDS011;69489;55.130;61.268;2023-04-21T14:04:37;4.20;;;2.58;;
80163;SDS011;69489;55.130;61.268;2023-04-21T14:07:03;7.72;;;4.20;;
80163;SDS011;69489;55.130;61.268;2023-04-21T14:09:30;6.53;;;2.75;;
80163;SDS011;69489;55.130;61.268;2023-04-21T14:11:56;5.32;;;3.67;;
80163;SDS011;69489;55.130;61.268;2023-04-21T14:14:22;4.95;;;2.72;;
80163;SDS011;69489;55.130;61.268;2023-04-21T14:16:48;8.63;;;2.75;;
80163;SDS011;69489;55.130;61.268;2023-04-21T14:19:14;6.93;;;2.97;;
80163;SDS011;69489;55.130;61.268;2023-04-21T14:21:42;5.80;;;2.70;;
80163;SDS011;69489;55.130;61.268;2023-04-21T14:24:08;6.50;;;2.85;;
80163;SDS011;69489;55.130;61.268;2023-04-21T14:26:34;8.07;;;2.92;;
80163;SDS011;69489;55.130;61.268;2023-04-21T14:29:00;5.13;;;2.47;;
80163;SDS011;69489;55.130;61.268;2023-04-21T14:31:26;6.15;;;2.70;;
80163;SDS011;69489;55.130;61.268;2023-04-21T14:33:53;7.50;;;3.33;;
80163;SDS011;69489;55.130;61.268;2023-04-21T14:36:19;10.40;;;3.08;;
80163;SDS011;69489;55.130;61.268;2023-04-21T14:38:45;7.15;;;3.22;;
80163;SDS011;69489;55.130;61.268;2023-04-21T14:41:11;9.30;;;3.28;;
80163;SDS011;69489;55.130;61.268;2023-04-21T14:43:36;7.25;;;3.92;;
80163;SDS011;69489;55.130;61.268;2023-04-21T14:46:02;7.78;;;3.67;;
80163;SDS011;69489;55.130;61.268;2023-04-21T14:48:28;8.38;;;4.10;;
80163;SDS011;69489;55.130;61.268;2023-04-21T14:50:55;10.68;;;3.92;;
80163;SDS011;69489;55.130;61.268;2023-04-21T14:53:23;10.93;;;4.70;;
80163;SDS011;69489;55.130;61.268;2023-04-21T14:55:49;9.80;;;5.03;;
80163;SDS011;69489;55.130;61.268;2023-04-21T14:58:15;8.63;;;4.82;;
80163;SDS011;69489;55.130;61.268;2023-04-21T15:00:41;8.93;;;3.97;;
80163;SDS011;69489;55.130;61.268;2023-04-21T15:03:07;8.13;;;3.78;;
80163;SDS011;69489;55.130;61.268;2023-04-21T15:05:33;9.15;;;4.05;;
80163;SDS011;69489;55.130;61.268;2023-04-21T15:08:00;8.30;;;4.35;;
80163;SDS011;69489;55.130;61.268;2023-04-21T15:10:26;10.25;;;5.13;;
80163;SDS011;69489;55.130;61.268;2023-04-21T15:12:55;6.50;;;4.47;;
80163;SDS011;69489;55.130;61.268;2023-04-21T15:17:47;6.40;;;3.70;;
80163;SDS011;69489;55.130;61.268;2023-04-21T15:20:13;9.65;;;4.30;;
80163;SDS011;69489;55.130;61.268;2023-04-21T15:22:39;7.95;;;4.38;;
80163;SDS011;69489;55.130;61.268;2023-04-21T15:25:05;7.78;;;4.22;;
80163;SDS011;69489;55.130;61.268;2023-04-21T15:27:31;8.77;;;4.22;;